Time;durP1;ratioP1;P1;durP2;ratioP2;P2;SDS_P1;SDS_P2;PMS_P1;PMS_P2;Temp;Humidity;BMP_temperature;BMP_pressure;BME280_temperature;BME280_humidity;BME280_pressure;Samples;Min_cycle;Max_cycle;Signal;HPM_P1;HPM_P2
2024/02/29 00:00:26;;;;;;;;;;;;;;;;;;5087605;28;20020;-57
2024/02/29 00:02:51;;;;;;;;;;;;;;;;;;5083792;28;20021;-55
2024/02/29 00:05:17;;;;;;;;;;;;;;;;;;5088401;28;20436;-56
2024/02/29 00:07:42;;;;;;;;;;;;;;;;;;5082733;28;19928;-54
2024/02/29 00:10:08;;;;;;;;;;;;;;;;;;5084526;28;20258;-54
2024/02/29 00:12:33;;;;;;;;;;;;;;;;;;5084251;28;20391;-54
2024/02/29 00:14:58;;;;;;;;;;;;;;;;;;5089367;28;20371;-55
2024/02/29 00:17:23;;;;;;;;;;;;;;;;;;5081665;28;20783;-56
2024/02/29 00:19:48;;;;;;;;;;;;;;;;;;5082010;28;20360;-56
2024/02/29 00:22:14;;;;;;;;;;;;;;;;;;5087612;28;20355;-56
2024/02/29 00:24:39;;;;;;;;;;;;;;;;;;5081087;28;19916;-56
2024/02/29 00:27:04;;;;;;;;;;;;;;;;;;5085501;28;19916;-55
2024/02/29 00:29:29;;;;;;;;;;;;;;;;;;5087716;28;19972;-56
2024/02/29 00:32:00;;;;;;;;;;;;;;;;;;5085859;28;19923;-56
2024/02/29 00:34:25;;;;;;;;;;;;;;;;;;5081742;28;19912;-54
2024/02/29 00:36:50;;;;;;;;;;;;;;;;;;5085018;28;19958;-56
2024/02/29 00:39:15;;;;;;;;;;;;;;;;;;5083078;28;19920;-56
2024/02/29 00:41:41;;;;;;;;;;;;;;;;;;5089241;28;19928;-56
2024/02/29 00:44:06;;;;;;;;;;;;;;;;;;5090964;28;19952;-55
2024/02/29 00:46:31;;;;;;;;;;;;;;;;;;5096329;28;19916;-55
2024/02/29 00:48:56;;;;;;;;;;;;;;;;;;5086815;28;20334;-54
2024/02/29 00:51:21;;;;;;;;;;;;;;;;;;5092663;28;19913;-56
2024/02/29 00:53:46;;;;;;;;;;;;;;;;;;5087280;28;19924;-58
2024/02/29 00:56:11;;;;;;;;;;;;;;;;;;5096225;28;19911;-61
2024/02/29 00:58:36;;;;;;;;;;;;;;;;;;5092441;28;19912;-61
2024/02/29 01:01:02;;;;;;;;;;;;;;;;;;5089344;28;19912;-60
2024/02/29 01:03:27;;;;;;;;;;;;;;;;;;5091180;28;19916;-61
2024/02/29 01:05:52;;;;;;;;;;;;;;;;;;5088039;28;19920;-61
2024/02/29 01:08:17;;;;;;;;;;;;;;;;;;5090220;28;19920;-61
2024/02/29 01:10:42;;;;;;;;;;;;;;;;;;5091557;28;20407;-61
2024/02/29 01:13:09;;;;;;;;;;;;;;;;;;5083346;28;19912;-59
2024/02/29 01:15:34;;;;;;;;;;;;;;;;;;5086924;28;19912;-60
2024/02/29 01:18:01;;;;;;;;;;;;;;;;;;5089557;28;19992;-61
2024/02/29 01:20:26;;;;;;;;;;;;;;;;;;5081824;28;19977;-61
2024/02/29 01:22:51;;;;;;;;;;;;;;;;;;5084900;28;19954;-61
2024/02/29 01:25:16;;;;;;;;;;;;;;;;;;5094198;28;19913;-61
2024/02/29 01:27:41;;;;;;;;;;;;;;;;;;5084719;28;20323;-61
2024/02/29 01:30:06;;;;;;;;;;;;;;;;;;5086014;28;19916;-60
2024/02/29 01:32:31;;;;;;;;;;;;;;;;;;5089591;28;19927;-61
2024/02/29 01:34:57;;;;;;;;;;;;;;;;;;5086338;28;19913;-61
2024/02/29 01:37:22;;;;;;;;;;;;;;;;;;5089253;28;19912;-61
2024/02/29 01:39:47;;;;;;;;;;;;;;;;;;5086046;28;19943;-60
2024/02/29 01:42:13;;;;;;;;;;;;;;;;;;5086489;28;19943;-61
2024/02/29 01:44:38;;;;;;;;;;;;;;;;;;5084049;28;20316;-57
2024/02/29 01:47:05;;;;;;;;;;;;;;;;;;5086058;28;19923;-55
2024/02/29 01:49:31;;;;;;;;;;;;;;;;;;5086879;28;19916;-56
2024/02/29 01:51:56;;;;;;;;;;;;;;;;;;5090444;28;20260;-55
2024/02/29 01:54:21;;;;;;;;;;;;;;;;;;5090807;28;19911;-56
2024/02/29 01:56:46;;;;;;;;;;;;;;;;;;5094473;28;19912;-55
2024/02/29 01:59:13;;;;;;;;;;;;;;;;;;5084152;28;19912;-56
2024/02/29 02:01:38;;;;;;;;;;;;;;;;;;5086580;28;20429;-55
2024/02/29 02:04:03;;;;;;;;;;;;;;;;;;5093556;28;20004;-53
2024/02/29 02:06:28;;;;;;;;;;;;;;;;;;5092147;28;19912;-56
2024/02/29 02:08:54;;;;;;;;;;;;;;;;;;5098240;28;19954;-57
2024/02/29 02:11:19;;;;;;;;;;;;;;;;;;5093319;28;19920;-55
2024/02/29 02:13:44;;;;;;;;;;;;;;;;;;5100486;28;19912;-56
2024/02/29 02:16:09;;;;;;;;;;;;;;;;;;5095803;28;20008;-56
2024/02/29 02:18:34;;;;;;;;;;;;;;;;;;5100582;28;19916;-56
2024/02/29 02:20:59;;;;;;;;;;;;;;;;;;5096364;28;19997;-55
2024/02/29 02:23:24;;;;;;;;;;;;;;;;;;5089778;28;19916;-55
2024/02/29 02:25:50;;;;;;;;;;;;;;;;;;5084247;28;19916;-55
2024/02/29 02:28:16;;;;;;;;;;;;;;;;;;5087375;28;19937;-54
2024/02/29 02:30:41;;;;;;;;;;;;;;;;;;5088405;28;19993;-55
2024/02/29 02:33:07;;;;;;;;;;;;;;;;;;5077226;28;19916;-56
2024/02/29 02:35:33;;;;;;;;;;;;;;;;;;5089673;28;19919;-55
2024/02/29 02:37:59;;;;;;;;;;;;;;;;;;5088117;28;19952;-56
2024/02/29 02:40:24;;;;;;;;;;;;;;;;;;5089669;28;20008;-55
2024/02/29 02:42:49;;;;;;;;;;;;;;;;;;5087016;28;19974;-56
2024/02/29 02:45:14;;;;;;;;;;;;;;;;;;5085806;28;20424;-54
2024/02/29 02:47:40;;;;;;;;;;;;;;;;;;5086727;28;20331;-61
2024/02/29 02:50:05;;;;;;;;;;;;;;;;;;5086493;28;19916;-56
2024/02/29 02:52:30;;;;;;;;;;;;;;;;;;5084348;28;20252;-57
2024/02/29 02:54:55;;;;;;;;;;;;;;;;;;5079313;28;19912;-57
2024/02/29 02:57:21;;;;;;;;;;;;;;;;;;5083421;28;20007;-55
2024/02/29 02:59:46;;;;;;;;;;;;;;;;;;5079998;28;20307;-55
2024/02/29 03:02:11;;;;;;;;;;;;;;;;;;5089125;28;19946;-56
2024/02/29 03:04:36;;;;;;;;;;;;;;;;;;5085355;28;19915;-55
2024/02/29 03:07:02;;;;;;;;;;;;;;;;;;5087930;28;19912;-55
2024/02/29 03:09:27;;;;;;;;;;;;;;;;;;5081683;28;19943;-55
2024/02/29 03:11:52;;;;;;;;;;;;;;;;;;5089534;28;19923;-55
2024/02/29 03:14:17;;;;;;;;;;;;;;;;;;5087650;28;19914;-55
2024/02/29 03:16:42;;;;;;;;;;;;;;;;;;5084086;28;19920;-55
2024/02/29 03:19:08;;;;;;;;;;;;;;;;;;5084090;28;19912;-54
2024/02/29 03:21:33;;;;;;;;;;;;;;;;;;5086848;28;19967;-56
2024/02/29 03:23:58;;;;;;;;;;;;;;;;;;5084782;28;19962;-54
2024/02/29 03:26:23;;;;;;;;;;;;;;;;;;5088114;28;20473;-57
2024/02/29 03:28:48;;;;;;;;;;;;;;;;;;5084777;28;19912;-55
2024/02/29 03:31:13;;;;;;;;;;;;;;;;;;5080844;28;19916;-55
2024/02/29 03:33:38;;;;;;;;;;;;;;;;;;5089146;28;20206;-55
2024/02/29 03:36:04;;;;;;;;;;;;;;;;;;5088405;28;19975;-55
2024/02/29 03:38:29;;;;;;;;;;;;;;;;;;5083819;28;19913;-52
2024/02/29 03:40:54;;;;;;;;;;;;;;;;;;5083981;28;20453;-56
2024/02/29 03:43:19;;;;;;;;;;;;;;;;;;5089213;28;20466;-55
2024/02/29 03:45:44;;;;;;;;;;;;;;;;;;5083507;28;20312;-53
2024/02/29 03:48:09;;;;;;;;;;;;;;;;;;5082771;28;19912;-55
2024/02/29 03:50:34;;;;;;;;;;;;;;;;;;5085081;28;19912;-55
2024/02/29 03:52:59;;;;;;;;;;;;;;;;;;5082136;28;19959;-54
2024/02/29 03:55:25;;;;;;;;;;;;;;;;;;5081793;28;20316;-55
2024/02/29 03:57:50;;;;;;;;;;;;;;;;;;5087038;28;19912;-56
2024/02/29 04:00:15;;;;;;;;;;;;;;;;;;5079847;28;19994;-58
2024/02/29 04:02:40;;;;;;;;;;;;;;;;;;5085355;28;19943;-56
2024/02/29 04:05:06;;;;;;;;;;;;;;;;;;5083874;28;19940;-61
2024/02/29 04:07:31;;;;;;;;;;;;;;;;;;5084268;28;19931;-61
2024/02/29 04:09:56;;;;;;;;;;;;;;;;;;5086284;28;19912;-61
2024/02/29 04:12:21;;;;;;;;;;;;;;;;;;5086100;28;19920;-61
2024/02/29 04:14:46;;;;;;;;;;;;;;;;;;5082153;28;19912;-61
2024/02/29 04:17:11;;;;;;;;;;;;;;;;;;5080243;28;20008;-61
2024/02/29 04:19:38;;;;;;;;;;;;;;;;;;5087031;28;19916;-60
2024/02/29 04:22:03;;;;;;;;;;;;;;;;;;5075510;28;20021;-61
2024/02/29 04:24:28;;;;;;;;;;;;;;;;;;5086669;28;19920;-58
2024/02/29 04:26:53;;;;;;;;;;;;;;;;;;5078556;28;19921;-60
2024/02/29 04:29:19;;;;;;;;;;;;;;;;;;5078286;28;19947;-61
2024/02/29 04:31:44;;;;;;;;;;;;;;;;;;5084139;28;21215;-62
2024/02/29 04:34:09;;;;;;;;;;;;;;;;;;5086265;28;19916;-61
2024/02/29 04:36:34;;;;;;;;;;;;;;;;;;5074082;28;19921;-63
2024/02/29 04:38:59;;;;;;;;;;;;;;;;;;5085030;28;19920;-63
2024/02/29 04:41:24;;;;;;;;;;;;;;;;;;5086790;28;20626;-61
2024/02/29 04:43:50;;;;;;;;;;;;;;;;;;5076851;28;19917;-61
2024/02/29 04:46:15;;;;;;;;;;;;;;;;;;5079184;28;20435;-61
2024/02/29 04:48:40;;;;;;;;;;;;;;;;;;5079621;28;20062;-61
2024/02/29 04:51:05;;;;;;;;;;;;;;;;;;5080197;28;20309;-62
2024/02/29 04:53:30;;;;;;;;;;;;;;;;;;5081393;28;20280;-62
2024/02/29 04:55:56;;;;;;;;;;;;;;;;;;5084969;28;19947;-59
2024/02/29 04:58:21;;;;;;;;;;;;;;;;;;5080948;28;20373;-61
2024/02/29 05:00:48;;;;;;;;;;;;;;;;;;5078804;28;19912;-60
2024/02/29 05:03:13;;;;;;;;;;;;;;;;;;5085948;28;20449;-63
2024/02/29 05:05:38;;;;;;;;;;;;;;;;;;5080136;28;19916;-61
2024/02/29 05:08:03;;;;;;;;;;;;;;;;;;5078300;28;19912;-61
2024/02/29 05:10:28;;;;;;;;;;;;;;;;;;5084027;28;19916;-63
2024/02/29 05:12:53;;;;;;;;;;;;;;;;;;5082748;28;19926;-61
2024/02/29 05:15:23;;;;;;;;;;;;;;;;;;5081071;28;19963;-61
2024/02/29 05:17:48;;;;;;;;;;;;;;;;;;5087222;28;20015;-61
2024/02/29 05:20:13;;;;;;;;;;;;;;;;;;5083162;28;20016;-61
2024/02/29 05:22:38;;;;;;;;;;;;;;;;;;5080625;28;20284;-62
2024/02/29 05:25:03;;;;;;;;;;;;;;;;;;5087935;28;20380;-61
2024/02/29 05:27:29;;;;;;;;;;;;;;;;;;5082920;28;19962;-61
2024/02/29 05:29:54;;;;;;;;;;;;;;;;;;5081043;28;20433;-61
2024/02/29 05:32:19;;;;;;;;;;;;;;;;;;5087309;28;19920;-61
2024/02/29 05:34:44;;;;;;;;;;;;;;;;;;5078484;28;19912;-61
2024/02/29 05:37:10;;;;;;;;;;;;;;;;;;5082089;28;19995;-61
2024/02/29 05:39:35;;;;;;;;;;;;;;;;;;5083832;28;19952;-61
2024/02/29 05:42:00;;;;;;;;;;;;;;;;;;5083491;28;19928;-64
2024/02/29 05:44:27;;;;;;;;;;;;;;;;;;5078488;28;19919;-61
2024/02/29 05:46:52;;;;;;;;;;;;;;;;;;5081760;28;19956;-61
2024/02/29 05:49:17;;;;;;;;;;;;;;;;;;5090540;28;19952;-61
2024/02/29 05:51:43;;;;;;;;;;;;;;;;;;5083620;28;19924;-61
2024/02/29 05:54:08;;;;;;;;;;;;;;;;;;5086705;28;20002;-60
2024/02/29 05:56:33;;;;;;;;;;;;;;;;;;5087069;28;19924;-61
2024/02/29 05:58:58;;;;;;;;;;;;;;;;;;5090673;28;19912;-61
2024/02/29 06:01:24;;;;;;;;;;;;;;;;;;5081381;28;19912;-61
2024/02/29 06:03:49;;;;;;;;;;;;;;;;;;5084521;28;19916;-62
2024/02/29 06:06:14;;;;;;;;;;;;;;;;;;5074817;28;19913;-61
2024/02/29 06:08:39;;;;;;;;;;;;;;;;;;5075356;28;19912;-62
2024/02/29 06:11:04;;;;;;;;;;;;;;;;;;5079004;28;19959;-62
2024/02/29 06:13:31;;;;;;;;;;;;;;;;;;5078299;28;19935;-62
2024/02/29 06:15:56;;;;;;;;;;;;;;;;;;5077475;28;19959;-62
2024/02/29 06:18:22;;;;;;;;;;;;;;;;;;5085504;28;19924;-64
2024/02/29 06:20:47;;;;;;;;;;;;;;;;;;5086550;28;19999;-65
2024/02/29 06:23:12;;;;;;;;;;;;;;;;;;5082349;28;19925;-62
2024/02/29 06:25:37;;;;;;;;;;;;;;;;;;5079780;28;19912;-55
2024/02/29 06:28:02;;;;;;;;;;;;;;;;;;5084213;28;19965;-55
2024/02/29 06:30:34;;;;;;;;;;;;;;;;;;5084332;28;19912;-56
2024/02/29 06:32:59;;;;;;;;;;;;;;;;;;5078824;28;19920;-56
2024/02/29 06:35:24;;;;;;;;;;;;;;;;;;5076624;28;19917;-55
2024/02/29 06:37:49;;;;;;;;;;;;;;;;;;5072928;28;20385;-55
2024/02/29 06:40:14;;;;;;;;;;;;;;;;;;5072036;28;19931;-57
2024/02/29 06:42:40;;;;;;;;;;;;;;;;;;5074164;28;19976;-57
2024/02/29 06:45:05;;;;;;;;;;;;;;;;;;5082094;28;20388;-56
2024/02/29 06:47:31;;;;;;;;;;;;;;;;;;5080223;28;19923;-55
2024/02/29 06:49:56;;;;;;;;;;;;;;;;;;5080490;28;19919;-55
2024/02/29 06:52:21;;;;;;;;;;;;;;;;;;5074697;28;19913;-55
2024/02/29 06:54:46;;;;;;;;;;;;;;;;;;5072261;28;19912;-55
2024/02/29 06:57:11;;;;;;;;;;;;;;;;;;5075202;28;19985;-56
2024/02/29 06:59:36;;;;;;;;;;;;;;;;;;5074034;28;19924;-55
2024/02/29 07:02:02;;;;;;;;;;;;;;;;;;5073441;28;20376;-56
2024/02/29 07:04:27;;;;;;;;;;;;;;;;;;5081726;28;20296;-55
2024/02/29 07:06:52;;;;;;;;;;;;;;;;;;5076432;28;20332;-55
2024/02/29 07:09:17;;;;;;;;;;;;;;;;;;5081393;28;19974;-55
2024/02/29 07:11:42;;;;;;;;;;;;;;;;;;5074896;28;19912;-55
2024/02/29 07:14:07;;;;;;;;;;;;;;;;;;5081507;28;20285;-56
2024/02/29 07:16:34;;;;;;;;;;;;;;;;;;5072614;28;20368;-54
2024/02/29 07:18:59;;;;;;;;;;;;;;;;;;5077628;28;19939;-55
2024/02/29 07:21:24;;;;;;;;;;;;;;;;;;5076158;28;19913;-55
2024/02/29 07:23:49;;;;;;;;;;;;;;;;;;5079925;28;20345;-55
2024/02/29 07:26:14;;;;;;;;;;;;;;;;;;5076309;28;19919;-56
2024/02/29 07:28:39;;;;;;;;;;;;;;;;;;5075106;28;20393;-55
2024/02/29 07:31:05;;;;;;;;;;;;;;;;;;5077584;28;19999;-56
2024/02/29 07:33:34;;;;;;;;;;;;;;;;;;5076486;28;19928;-56
2024/02/29 07:35:59;;;;;;;;;;;;;;;;;;5072284;28;19924;-62
2024/02/29 07:38:24;;;;;;;;;;;;;;;;;;5076780;28;19912;-62
2024/02/29 07:40:50;;;;;;;;;;;;;;;;;;5084980;28;20388;-62
2024/02/29 07:43:15;;;;;;;;;;;;;;;;;;5075823;28;20414;-62
2024/02/29 07:45:40;;;;;;;;;;;;;;;;;;5083367;28;20307;-61
2024/02/29 07:48:05;;;;;;;;;;;;;;;;;;5071715;28;20277;-62
2024/02/29 07:50:31;;;;;;;;;;;;;;;;;;5071647;28;19989;-61
2024/02/29 07:52:56;;;;;;;;;;;;;;;;;;5073928;28;19924;-61
2024/02/29 07:55:21;;;;;;;;;;;;;;;;;;5080424;28;20023;-62
2024/02/29 07:57:47;;;;;;;;;;;;;;;;;;5079731;28;20022;-61
2024/02/29 08:00:12;;;;;;;;;;;;;;;;;;5075804;28;20361;-61
2024/02/29 08:02:37;;;;;;;;;;;;;;;;;;5073685;28;19962;-61
2024/02/29 08:05:02;;;;;;;;;;;;;;;;;;5071192;28;20657;-60
2024/02/29 08:07:27;;;;;;;;;;;;;;;;;;5073697;28;19916;-61
2024/02/29 08:09:52;;;;;;;;;;;;;;;;;;5072138;28;19913;-61
2024/02/29 08:12:18;;;;;;;;;;;;;;;;;;5071110;28;19919;-61
2024/02/29 08:14:44;;;;;;;;;;;;;;;;;;5075615;28;19912;-58
2024/02/29 08:17:09;;;;;;;;;;;;;;;;;;5059575;28;19916;-61
2024/02/29 08:19:34;;;;;;;;;;;;;;;;;;5078080;28;19958;-61
2024/02/29 08:21:59;;;;;;;;;;;;;;;;;;5073640;28;20292;-62
2024/02/29 08:24:25;;;;;;;;;;;;;;;;;;5070857;28;19995;-60
2024/02/29 08:26:50;;;;;;;;;;;;;;;;;;5078216;28;19916;-61
2024/02/29 08:29:16;;;;;;;;;;;;;;;;;;5076949;28;20326;-61
2024/02/29 08:31:41;;;;;;;;;;;;;;;;;;5077502;28;19954;-60
2024/02/29 08:34:06;;;;;;;;;;;;;;;;;;5077606;28;19965;-60
2024/02/29 08:36:31;;;;;;;;;;;;;;;;;;5073158;28;19919;-61
2024/02/29 08:38:57;;;;;;;;;;;;;;;;;;5079821;28;19920;-60
2024/02/29 08:41:23;;;;;;;;;;;;;;;;;;5071381;28;19921;-60
2024/02/29 08:43:48;;;;;;;;;;;;;;;;;;5078260;28;20254;-61
2024/02/29 08:46:13;;;;;;;;;;;;;;;;;;5083272;28;20530;-58
2024/02/29 08:48:38;;;;;;;;;;;;;;;;;;5071092;28;20258;-60
2024/02/29 08:51:03;;;;;;;;;;;;;;;;;;5072696;28;19912;-60
2024/02/29 08:53:28;;;;;;;;;;;;;;;;;;5075173;28;20346;-61
2024/02/29 08:55:54;;;;;;;;;;;;;;;;;;5079504;28;19999;-61
2024/02/29 08:58:19;;;;;;;;;;;;;;;;;;5076712;28;19916;-62
2024/02/29 09:00:44;;;;;;;;;;;;;;;;;;5072379;28;19988;-61
2024/02/29 09:03:09;;;;;;;;;;;;;;;;;;5071023;28;19916;-63
2024/02/29 09:05:34;;;;;;;;;;;;;;;;;;5073324;28;19944;-62
2024/02/29 09:07:59;;;;;;;;;;;;;;;;;;5070753;28;19917;-62
2024/02/29 09:10:24;;;;;;;;;;;;;;;;;;5073908;28;19912;-62
2024/02/29 09:12:50;;;;;;;;;;;;;;;;;;5074314;28;19912;-62
2024/02/29 09:15:15;;;;;;;;;;;;;;;;;;5077960;28;19917;-62
2024/02/29 09:17:40;;;;;;;;;;;;;;;;;;5073393;28;19913;-61
2024/02/29 09:20:06;;;;;;;;;;;;;;;;;;5072975;28;19913;-62
2024/02/29 09:22:31;;;;;;;;;;;;;;;;;;5073444;28;19969;-62
2024/02/29 09:24:56;;;;;;;;;;;;;;;;;;5085220;28;19923;-62
2024/02/29 09:27:21;;;;;;;;;;;;;;;;;;5073992;28;19920;-63
2024/02/29 09:29:46;;;;;;;;;;;;;;;;;;5078320;28;20281;-62
2024/02/29 09:32:12;;;;;;;;;;;;;;;;;;5080525;28;19957;-63
2024/02/29 09:34:37;;;;;;;;;;;;;;;;;;5079440;28;19916;-62
2024/02/29 09:37:03;;;;;;;;;;;;;;;;;;5081353;28;19916;-62
2024/02/29 09:39:28;;;;;;;;;;;;;;;;;;5081647;28;19928;-62
2024/02/29 09:41:53;;;;;;;;;;;;;;;;;;5080289;28;20293;-59
2024/02/29 09:44:19;;;;;;;;;;;;;;;;;;5078978;28;19916;-63
2024/02/29 09:46:46;;;;;;;;;;;;;;;;;;5076699;28;19920;-62
2024/02/29 09:49:12;;;;;;;;;;;;;;;;;;5083043;28;19986;-62
2024/02/29 09:51:37;;;;;;;;;;;;;;;;;;5089861;28;20535;-62
2024/02/29 09:54:02;;;;;;;;;;;;;;;;;;5094394;28;19966;-62
2024/02/29 09:56:27;;;;;;;;;;;;;;;;;;5076292;28;19920;-62
2024/02/29 09:58:53;;;;;;;;;;;;;;;;;;5073733;28;19944;-62
2024/02/29 10:01:18;;;;;;;;;;;;;;;;;;5075256;28;19920;-62
2024/02/29 10:03:43;;;;;;;;;;;;;;;;;;5074949;28;19962;-60
2024/02/29 10:06:08;;;;;;;;;;;;;;;;;;5082726;28;19969;-62
2024/02/29 10:08:35;;;;;;;;;;;;;;;;;;5074237;28;19916;-63
2024/02/29 10:11:00;;;;;;;;;;;;;;;;;;5081075;28;19913;-63
2024/02/29 10:13:25;;;;;;;;;;;;;;;;;;5082534;28;19919;-62
2024/02/29 10:15:51;;;;;;;;;;;;;;;;;;5078750;28;19958;-63
2024/02/29 10:18:16;;;;;;;;;;;;;;;;;;5073323;28;20380;-62
2024/02/29 10:20:42;;;;;;;;;;;;;;;;;;5079634;28;19959;-62
2024/02/29 10:23:07;;;;;;;;;;;;;;;;;;5080400;28;19927;-62
2024/02/29 10:25:33;;;;;;;;;;;;;;;;;;5084432;28;19998;-63
2024/02/29 10:27:58;;;;;;;;;;;;;;;;;;5080097;28;20301;-63
2024/02/29 10:30:23;;;;;;;;;;;;;;;;;;5078834;28;19916;-60
2024/02/29 10:32:48;;;;;;;;;;;;;;;;;;5081288;28;20012;-63
2024/02/29 10:35:13;;;;;;;;;;;;;;;;;;5082120;28;19959;-62
2024/02/29 10:37:38;;;;;;;;;;;;;;;;;;5074371;28;20277;-63
2024/02/29 10:40:04;;;;;;;;;;;;;;;;;;5086280;28;20374;-63
2024/02/29 10:42:29;;;;;;;;;;;;;;;;;;5076505;28;19997;-63
2024/02/29 10:44:54;;;;;;;;;;;;;;;;;;5074003;28;20319;-62
2024/02/29 10:47:19;;;;;;;;;;;;;;;;;;5072653;28;20312;-62
2024/02/29 10:49:44;;;;;;;;;;;;;;;;;;5076624;28;19912;-62
2024/02/29 10:52:09;;;;;;;;;;;;;;;;;;5079071;28;20010;-62
2024/02/29 10:54:34;;;;;;;;;;;;;;;;;;5075464;28;19917;-62
2024/02/29 10:57:00;;;;;;;;;;;;;;;;;;5079648;28;19919;-65
2024/02/29 10:59:25;;;;;;;;;;;;;;;;;;5075358;28;19959;-63
2024/02/29 11:01:56;;;;;;;;;;;;;;;;;;5077921;28;19913;-63
2024/02/29 11:04:21;;;;;;;;;;;;;;;;;;5074140;28;19917;-62
2024/02/29 11:06:46;;;;;;;;;;;;;;;;;;5079335;28;19966;-56
2024/02/29 11:09:11;;;;;;;;;;;;;;;;;;5078755;28;20262;-57
2024/02/29 11:11:36;;;;;;;;;;;;;;;;;;5077000;28;19912;-57
2024/02/29 11:14:01;;;;;;;;;;;;;;;;;;5072347;28;19912;-57
2024/02/29 11:16:27;;;;;;;;;;;;;;;;;;5078271;28;19912;-57
2024/02/29 11:18:52;;;;;;;;;;;;;;;;;;5073925;28;19912;-56
2024/02/29 11:21:18;;;;;;;;;;;;;;;;;;5079419;28;19913;-57
2024/02/29 11:23:43;;;;;;;;;;;;;;;;;;5076134;28;20256;-57
2024/02/29 11:26:08;;;;;;;;;;;;;;;;;;5081484;28;20436;-55
2024/02/29 11:28:34;;;;;;;;;;;;;;;;;;5078961;28;20391;-57
2024/02/29 11:30:59;;;;;;;;;;;;;;;;;;5073422;28;19916;-58
2024/02/29 11:33:24;;;;;;;;;;;;;;;;;;5076909;28;19928;-57
2024/02/29 11:35:49;;;;;;;;;;;;;;;;;;5076443;28;19923;-57
2024/02/29 11:38:14;;;;;;;;;;;;;;;;;;5073504;28;20007;-56
2024/02/29 11:40:39;;;;;;;;;;;;;;;;;;5076231;28;19928;-56
2024/02/29 11:43:07;;;;;;;;;;;;;;;;;;5071261;28;19996;-57
2024/02/29 11:45:32;;;;;;;;;;;;;;;;;;5076401;28;19919;-57
2024/02/29 11:47:57;;;;;;;;;;;;;;;;;;5073413;28;20015;-58
2024/02/29 11:50:24;;;;;;;;;;;;;;;;;;5081764;28;19928;-56
2024/02/29 11:52:49;;;;;;;;;;;;;;;;;;5076266;28;20485;-56
2024/02/29 11:55:14;;;;;;;;;;;;;;;;;;5076899;28;19920;-57
2024/02/29 11:57:40;;;;;;;;;;;;;;;;;;5073718;28;20393;-56
2024/02/29 12:00:05;;;;;;;;;;;;;;;;;;5071384;28;19912;-55
2024/02/29 12:02:30;;;;;;;;;;;;;;;;;;5072414;28;19920;-55
2024/02/29 12:04:55;;;;;;;;;;;;;;;;;;5073066;28;20019;-57
2024/02/29 12:07:21;;;;;;;;;;;;;;;;;;5077075;28;20311;-54
2024/02/29 12:09:46;;;;;;;;;;;;;;;;;;5070657;28;20357;-57
2024/02/29 12:12:12;;;;;;;;;;;;;;;;;;5071437;28;20319;-56
2024/02/29 12:14:38;;;;;;;;;;;;;;;;;;5074551;28;19919;-57
2024/02/29 12:17:03;;;;;;;;;;;;;;;;;;5078155;28;20893;-57
2024/02/29 12:19:29;;;;;;;;;;;;;;;;;;5071859;28;19924;-58
2024/02/29 12:21:54;;;;;;;;;;;;;;;;;;5072575;28;20320;-56
2024/02/29 12:24:19;;;;;;;;;;;;;;;;;;5082105;28;20326;-57
2024/02/29 12:26:44;;;;;;;;;;;;;;;;;;5081070;28;19943;-59
2024/02/29 12:29:12;;;;;;;;;;;;;;;;;;5073654;28;20390;-62
2024/02/29 12:31:37;;;;;;;;;;;;;;;;;;5078586;28;20023;-55
2024/02/29 12:34:03;;;;;;;;;;;;;;;;;;5077500;28;19943;-55
2024/02/29 12:36:28;;;;;;;;;;;;;;;;;;5077058;28;19916;-55
2024/02/29 12:38:53;;;;;;;;;;;;;;;;;;5079394;28;20017;-57
2024/02/29 12:41:19;;;;;;;;;;;;;;;;;;5072752;28;19925;-54
2024/02/29 12:43:44;;;;;;;;;;;;;;;;;;5073238;28;19924;-55
2024/02/29 12:46:09;;;;;;;;;;;;;;;;;;5071596;28;19920;-57
2024/02/29 12:48:34;;;;;;;;;;;;;;;;;;5072793;28;19912;-55
2024/02/29 12:50:59;;;;;;;;;;;;;;;;;;5074379;28;20007;-54
2024/02/29 12:53:25;;;;;;;;;;;;;;;;;;5077871;28;19919;-56
2024/02/29 12:55:50;;;;;;;;;;;;;;;;;;5069841;28;20383;-57
2024/02/29 12:58:15;;;;;;;;;;;;;;;;;;5071416;28;20378;-55
2024/02/29 13:00:40;;;;;;;;;;;;;;;;;;5069975;28;19919;-55
2024/02/29 13:03:05;;;;;;;;;;;;;;;;;;5070629;28;20357;-55
2024/02/29 13:05:31;;;;;;;;;;;;;;;;;;5074389;28;20177;-56
2024/02/29 13:07:56;;;;;;;;;;;;;;;;;;5073837;28;20535;-55
2024/02/29 13:10:22;;;;;;;;;;;;;;;;;;5072261;28;20660;-55
2024/02/29 13:12:47;;;;;;;;;;;;;;;;;;5072852;28;19912;-56
2024/02/29 13:15:12;;;;;;;;;;;;;;;;;;5071307;28;19912;-55
2024/02/29 13:17:38;;;;;;;;;;;;;;;;;;5075549;28;19912;-55
2024/02/29 13:20:04;;;;;;;;;;;;;;;;;;5071856;28;19928;-56
2024/02/29 13:22:29;;;;;;;;;;;;;;;;;;5072842;28;19966;-56
2024/02/29 13:24:54;;;;;;;;;;;;;;;;;;5069754;28;20396;-57
2024/02/29 13:27:19;;;;;;;;;;;;;;;;;;5076182;28;19913;-61
2024/02/29 13:29:44;;;;;;;;;;;;;;;;;;5073032;28;20007;-61
2024/02/29 13:32:09;;;;;;;;;;;;;;;;;;5075383;28;19912;-61
2024/02/29 13:34:34;;;;;;;;;;;;;;;;;;5070427;28;20318;-60
2024/02/29 13:37:00;;;;;;;;;;;;;;;;;;5073691;28;20366;-60
2024/02/29 13:39:25;;;;;;;;;;;;;;;;;;5072918;28;20322;-61
2024/02/29 13:41:50;;;;;;;;;;;;;;;;;;5079805;28;20258;-61
2024/02/29 13:44:15;;;;;;;;;;;;;;;;;;5081159;28;19959;-61
2024/02/29 13:46:40;;;;;;;;;;;;;;;;;;5069799;28;19913;-61
2024/02/29 13:49:05;;;;;;;;;;;;;;;;;;5074212;28;19913;-61
2024/02/29 13:51:30;;;;;;;;;;;;;;;;;;5072544;28;19960;-62
2024/02/29 13:53:55;;;;;;;;;;;;;;;;;;5069705;28;20433;-61
2024/02/29 13:56:21;;;;;;;;;;;;;;;;;;5075455;28;19918;-61
2024/02/29 13:58:48;;;;;;;;;;;;;;;;;;5078665;28;20041;-61
2024/02/29 14:01:13;;;;;;;;;;;;;;;;;;5077879;28;19927;-61
2024/02/29 14:03:38;;;;;;;;;;;;;;;;;;5069208;28;19921;-60
2024/02/29 14:06:03;;;;;;;;;;;;;;;;;;5069405;28;19912;-61
2024/02/29 14:08:28;;;;;;;;;;;;;;;;;;5075324;28;19912;-61
2024/02/29 14:10:54;;;;;;;;;;;;;;;;;;5076961;28;19920;-60
2024/02/29 14:13:19;;;;;;;;;;;;;;;;;;5073495;28;19948;-61
2024/02/29 14:15:44;;;;;;;;;;;;;;;;;;5075280;28;19920;-61
2024/02/29 14:18:10;;;;;;;;;;;;;;;;;;5073533;28;19926;-61
2024/02/29 14:20:35;;;;;;;;;;;;;;;;;;5076487;28;20002;-60
2024/02/29 14:23:00;;;;;;;;;;;;;;;;;;5075201;28;19921;-61
2024/02/29 14:25:25;;;;;;;;;;;;;;;;;;5081224;28;19916;-60
2024/02/29 14:27:53;;;;;;;;;;;;;;;;;;5075762;28;19912;-59
2024/02/29 14:30:18;;;;;;;;;;;;;;;;;;5076698;28;20003;-61
2024/02/29 14:32:44;;;;;;;;;;;;;;;;;;5081049;28;19955;-61
2024/02/29 14:35:09;;;;;;;;;;;;;;;;;;5083014;28;19916;-60
2024/02/29 14:37:34;;;;;;;;;;;;;;;;;;5087068;28;19966;-60
2024/02/29 14:39:59;;;;;;;;;;;;;;;;;;5088077;28;20002;-61
2024/02/29 14:42:25;;;;;;;;;;;;;;;;;;5087846;28;19927;-61
2024/02/29 14:44:50;;;;;;;;;;;;;;;;;;5085980;28;19913;-61
2024/02/29 14:47:15;;;;;;;;;;;;;;;;;;5078299;28;19912;-53
2024/02/29 14:49:40;;;;;;;;;;;;;;;;;;5081806;28;19913;-55
2024/02/29 14:52:06;;;;;;;;;;;;;;;;;;5075359;28;19951;-56
2024/02/29 14:54:31;;;;;;;;;;;;;;;;;;5076129;28;20353;-56
2024/02/29 14:56:56;;;;;;;;;;;;;;;;;;5081931;28;19963;-55
2024/02/29 14:59:21;;;;;;;;;;;;;;;;;;5087386;28;19913;-56
2024/02/29 15:01:46;;;;;;;;;;;;;;;;;;5094306;28;20246;-57
2024/02/29 15:04:12;;;;;;;;;;;;;;;;;;5074555;28;19994;-56
2024/02/29 15:06:37;;;;;;;;;;;;;;;;;;5073321;28;19913;-56
2024/02/29 15:09:02;;;;;;;;;;;;;;;;;;5073038;28;20673;-57
2024/02/29 15:11:28;;;;;;;;;;;;;;;;;;5077534;28;19917;-56
2024/02/29 15:13:53;;;;;;;;;;;;;;;;;;5074491;28;19939;-57
2024/02/29 15:16:19;;;;;;;;;;;;;;;;;;5075323;28;19916;-57
2024/02/29 15:18:44;;;;;;;;;;;;;;;;;;5083933;28;19913;-56
2024/02/29 15:21:10;;;;;;;;;;;;;;;;;;5074111;28;19913;-56
2024/02/29 15:23:35;;;;;;;;;;;;;;;;;;5078610;28;19916;-57
2024/02/29 15:26:00;;;;;;;;;;;;;;;;;;5078885;28;19918;-56
2024/02/29 15:28:27;;;;;;;;;;;;;;;;;;5073812;28;19919;-56
2024/02/29 15:30:52;;;;;;;;;;;;;;;;;;5073405;28;19912;-57
2024/02/29 15:33:20;;;;;;;;;;;;;;;;;;5079841;28;20266;-56
2024/02/29 15:35:45;;;;;;;;;;;;;;;;;;5073859;28;19926;-56
2024/02/29 15:38:10;;;;;;;;;;;;;;;;;;5072923;28;19974;-56
2024/02/29 15:40:35;;;;;;;;;;;;;;;;;;5071481;28;19967;-56
2024/02/29 15:43:00;;;;;;;;;;;;;;;;;;5072168;28;19944;-57
2024/02/29 15:45:25;;;;;;;;;;;;;;;;;;5078250;28;19921;-56
2024/02/29 15:47:50;;;;;;;;;;;;;;;;;;5079190;28;19985;-57
2024/02/29 15:50:16;;;;;;;;;;;;;;;;;;5078363;28;19951;-56
2024/02/29 15:52:41;;;;;;;;;;;;;;;;;;5070647;28;19913;-56
2024/02/29 15:55:06;;;;;;;;;;;;;;;;;;5082446;28;19935;-56
2024/02/29 15:57:31;;;;;;;;;;;;;;;;;;5079477;28;20054;-56
2024/02/29 15:59:56;;;;;;;;;;;;;;;;;;5077402;28;20281;-57
2024/02/29 16:02:21;;;;;;;;;;;;;;;;;;5071561;28;20280;-55
2024/02/29 16:04:47;;;;;;;;;;;;;;;;;;5073729;28;19913;-56
2024/02/29 16:07:12;;;;;;;;;;;;;;;;;;5074946;28;20374;-56
2024/02/29 16:09:37;;;;;;;;;;;;;;;;;;5074542;28;19912;-58
2024/02/29 16:12:03;;;;;;;;;;;;;;;;;;5074296;28;19916;-56
2024/02/29 16:14:28;;;;;;;;;;;;;;;;;;5074697;28;19912;-56
2024/02/29 16:16:53;;;;;;;;;;;;;;;;;;5080308;28;20284;-56
2024/02/29 16:19:19;;;;;;;;;;;;;;;;;;5080689;28;20392;-56
2024/02/29 16:21:44;;;;;;;;;;;;;;;;;;5075030;28;19913;-55
2024/02/29 16:24:09;;;;;;;;;;;;;;;;;;5071068;28;19920;-57
2024/02/29 16:26:34;;;;;;;;;;;;;;;;;;5075902;28;19920;-57
2024/02/29 16:28:59;;;;;;;;;;;;;;;;;;5088837;28;19916;-57
2024/02/29 16:31:24;;;;;;;;;;;;;;;;;;5082595;28;19916;-56